Portada
METAR-TAF:

METAR-TAF

Aeroports :

Lewistown Municipal Airport

Lewistown, Montana, Estats Units d'Amèrica

latitud: 47-02-57N, longitud: 109-27-59W, altitud: 1270 m

Observació

L'informe es va fer fa 46 minuts, a les 03:54 UTC
Vent 6 kt del Nord
Temperatura 17°C
Humitat 32%
Pressió 1014 hPa
Visibilitat: 16.1 km
Cel clar

METAR: KLWT 040354Z AUTO 36006KT 10SM CLR 17/00 A2994 RMK AO2 SLP107 T01720000

Hora: 22:40 (04:40 UTC)

Pronòstic

L'informe es va fer fa 5 hores i 20 minuts, a les 23:20 UTC
Pronòstic vàlid del 04 a les 00 UTC al 04 a les 24 UTC
Vent 14 kt del Oest/Nord-Oest amb ràfegues de 22 kt
Visibilitat: 10 km
Escasses núvols a una alçada de 7000 ft
Núvols disperses a una alçada de 12000 ft
A partir de les 04 a les 0200 UTC
Vent 8 kt del Nord-Oest
Visibilitat: 10 km
Núvols disperses a una alçada de 12000 ft

TAF: KLWT 032320Z 0400/0424 29014G22KT P6SM FEW070 SCT120 FM040200 31008KT P6SM SCT120

Observacions i pronòstics meteorològics de més de 4000 aeroports (METAR i TAF).

Les estacions disponibles són els punts grocs i vermells al mapa.

Posi el ratolí al punt desitjat per veure el nom de l'estació.

Feu clic per veure les observacions i els pronòstics meteorològics.

Per canviar el mapa: feu clic els botons verds amb una creu de color negre per apropar; al botó verd amb un guió per allunyar la imatge; o en les fletxes verdes per a mapes adjacents.


METAR-TAF: